sensor_id;sensor_type;location;lat;lon;timestamp;P1;durP1;ratioP1;P2;durP2;ratioP2
25111;SDS011;13092;51.996;4.458;2022-12-16T00:02:01;26.83;;;25.13;;
25111;SDS011;13092;51.996;4.458;2022-12-16T00:04:30;27.30;;;25.30;;
25111;SDS011;13092;51.996;4.458;2022-12-16T00:06:58;26.00;;;24.00;;
25111;SDS011;13092;51.996;4.458;2022-12-16T00:09:27;26.57;;;24.77;;
25111;SDS011;13092;51.996;4.458;2022-12-16T00:11:55;26.47;;;24.47;;
25111;SDS011;13092;51.996;4.458;2022-12-16T00:14:25;26.27;;;24.37;;
25111;SDS011;13092;51.996;4.458;2022-12-16T00:16:54;25.37;;;23.57;;
25111;SDS011;13092;51.996;4.458;2022-12-16T00:19:23;25.33;;;23.63;;
25111;SDS011;13092;51.996;4.458;2022-12-16T00:21:52;25.50;;;23.70;;
25111;SDS011;13092;51.996;4.458;2022-12-16T00:24:20;25.03;;;22.97;;
25111;SDS011;13092;51.996;4.458;2022-12-16T00:26:48;24.63;;;23.03;;
25111;SDS011;13092;51.996;4.458;2022-12-16T00:29:16;24.30;;;22.70;;
25111;SDS011;13092;51.996;4.458;2022-12-16T00:31:46;24.37;;;22.57;;
25111;SDS011;13092;51.996;4.458;2022-12-16T00:34:14;24.80;;;23.20;;
25111;SDS011;13092;51.996;4.458;2022-12-16T00:36:43;25.17;;;23.27;;
25111;SDS011;13092;51.996;4.458;2022-12-16T00:39:12;24.40;;;22.80;;
25111;SDS011;13092;51.996;4.458;2022-12-16T00:41:41;24.93;;;23.23;;
25111;SDS011;13092;51.996;4.458;2022-12-16T00:44:09;24.77;;;23.07;;
25111;SDS011;13092;51.996;4.458;2022-12-16T00:46:37;24.43;;;22.83;;
25111;SDS011;13092;51.996;4.458;2022-12-16T00:49:06;26.10;;;24.13;;
25111;SDS011;13092;51.996;4.458;2022-12-16T00:51:34;25.30;;;23.43;;
25111;SDS011;13092;51.996;4.458;2022-12-16T00:54:03;24.87;;;23.07;;
25111;SDS011;13092;51.996;4.458;2022-12-16T00:56:31;25.33;;;23.43;;
25111;SDS011;13092;51.996;4.458;2022-12-16T00:58:59;24.83;;;23.23;;
25111;SDS011;13092;51.996;4.458;2022-12-16T01:01:27;25.63;;;23.90;;
25111;SDS011;13092;51.996;4.458;2022-12-16T01:03:55;25.93;;;24.13;;
25111;SDS011;13092;51.996;4.458;2022-12-16T01:06:25;25.70;;;24.10;;
25111;SDS011;13092;51.996;4.458;2022-12-16T01:08:53;26.80;;;24.90;;
25111;SDS011;13092;51.996;4.458;2022-12-16T01:11:21;25.70;;;23.83;;
25111;SDS011;13092;51.996;4.458;2022-12-16T01:13:50;26.33;;;24.43;;
25111;SDS011;13092;51.996;4.458;2022-12-16T01:16:20;26.20;;;24.40;;
25111;SDS011;13092;51.996;4.458;2022-12-16T01:18:49;27.03;;;25.03;;
25111;SDS011;13092;51.996;4.458;2022-12-16T01:21:17;26.57;;;24.70;;
25111;SDS011;13092;51.996;4.458;2022-12-16T01:23:47;26.87;;;25.17;;
25111;SDS011;13092;51.996;4.458;2022-12-16T01:26:16;27.97;;;26.07;;
25111;SDS011;13092;51.996;4.458;2022-12-16T01:28:46;27.93;;;25.70;;
25111;SDS011;13092;51.996;4.458;2022-12-16T01:31:14;28.23;;;26.30;;
25111;SDS011;13092;51.996;4.458;2022-12-16T01:33:45;28.17;;;26.27;;
25111;SDS011;13092;51.996;4.458;2022-12-16T01:36:16;26.73;;;25.03;;
25111;SDS011;13092;51.996;4.458;2022-12-16T01:38:46;27.07;;;25.13;;
25111;SDS011;13092;51.996;4.458;2022-12-16T01:41:16;26.90;;;25.20;;
25111;SDS011;13092;51.996;4.458;2022-12-16T01:43:44;26.27;;;24.37;;
25111;SDS011;13092;51.996;4.458;2022-12-16T01:46:15;27.07;;;25.07;;
25111;SDS011;13092;51.996;4.458;2022-12-16T01:48:47;26.93;;;25.00;;
25111;SDS011;13092;51.996;4.458;2022-12-16T01:51:25;26.57;;;24.77;;
25111;SDS011;13092;51.996;4.458;2022-12-16T01:53:59;26.67;;;24.97;;
25111;SDS011;13092;51.996;4.458;2022-12-16T01:56:31;27.80;;;25.60;;
25111;SDS011;13092;51.996;4.458;2022-12-16T01:59:00;27.53;;;25.63;;
25111;SDS011;13092;51.996;4.458;2022-12-16T02:01:29;28.20;;;26.20;;
25111;SDS011;13092;51.996;4.458;2022-12-16T02:03:57;27.10;;;25.37;;
25111;SDS011;13092;51.996;4.458;2022-12-16T02:06:29;26.70;;;25.00;;
25111;SDS011;13092;51.996;4.458;2022-12-16T02:08:59;27.97;;;25.93;;
25111;SDS011;13092;51.996;4.458;2022-12-16T02:11:37;26.17;;;24.47;;
25111;SDS011;13092;51.996;4.458;2022-12-16T02:17:22;25.87;;;23.90;;
25111;SDS011;13092;51.996;4.458;2022-12-16T02:23:02;24.87;;;23.07;;
25111;SDS011;13092;51.996;4.458;2022-12-16T02:25:55;24.47;;;22.60;;
25111;SDS011;13092;51.996;4.458;2022-12-16T02:28:58;25.10;;;23.43;;
25111;SDS011;13092;51.996;4.458;2022-12-16T02:31:40;25.47;;;23.80;;
25111;SDS011;13092;51.996;4.458;2022-12-16T02:34:21;25.47;;;23.40;;
25111;SDS011;13092;51.996;4.458;2022-12-16T02:37:00;25.23;;;23.57;;
25111;SDS011;13092;51.996;4.458;2022-12-16T02:39:36;24.77;;;23.27;;
25111;SDS011;13092;51.996;4.458;2022-12-16T02:42:08;24.40;;;22.70;;
25111;SDS011;13092;51.996;4.458;2022-12-16T02:44:43;25.57;;;23.57;;
25111;SDS011;13092;51.996;4.458;2022-12-16T02:47:20;26.07;;;23.87;;
25111;SDS011;13092;51.996;4.458;2022-12-16T02:49:49;25.50;;;23.80;;
25111;SDS011;13092;51.996;4.458;2022-12-16T02:52:19;25.43;;;23.87;;
25111;SDS011;13092;51.996;4.458;2022-12-16T02:54:51;23.77;;;22.17;;
25111;SDS011;13092;51.996;4.458;2022-12-16T02:57:25;25.07;;;23.20;;
25111;SDS011;13092;51.996;4.458;2022-12-16T03:00:15;24.70;;;22.80;;
25111;SDS011;13092;51.996;4.458;2022-12-16T03:02:48;22.70;;;21.20;;
25111;SDS011;13092;51.996;4.458;2022-12-16T03:05:25;24.43;;;22.83;;
25111;SDS011;13092;51.996;4.458;2022-12-16T03:07:57;22.80;;;21.30;;
25111;SDS011;13092;51.996;4.458;2022-12-16T03:10:29;22.87;;;21.40;;
25111;SDS011;13092;51.996;4.458;2022-12-16T03:13:02;23.00;;;21.43;;
25111;SDS011;13092;51.996;4.458;2022-12-16T03:15:33;22.53;;;21.00;;
25111;SDS011;13092;51.996;4.458;2022-12-16T03:18:04;23.03;;;20.93;;
25111;SDS011;13092;51.996;4.458;2022-12-16T03:20:37;21.93;;;20.33;;
25111;SDS011;13092;51.996;4.458;2022-12-16T03:23:11;22.43;;;20.97;;
25111;SDS011;13092;51.996;4.458;2022-12-16T03:25:44;22.73;;;21.03;;
25111;SDS011;13092;51.996;4.458;2022-12-16T03:28:21;21.53;;;19.80;;
25111;SDS011;13092;51.996;4.458;2022-12-16T03:31:02;20.37;;;18.87;;
25111;SDS011;13092;51.996;4.458;2022-12-16T03:33:37;21.47;;;19.87;;
25111;SDS011;13092;51.996;4.458;2022-12-16T03:36:11;22.33;;;20.83;;
25111;SDS011;13092;51.996;4.458;2022-12-16T03:38:43;22.43;;;20.93;;
25111;SDS011;13092;51.996;4.458;2022-12-16T03:41:13;22.07;;;20.47;;
25111;SDS011;13092;51.996;4.458;2022-12-16T03:43:43;22.00;;;20.47;;
25111;SDS011;13092;51.996;4.458;2022-12-16T03:46:12;21.57;;;20.07;;
25111;SDS011;13092;51.996;4.458;2022-12-16T03:48:47;21.93;;;20.23;;
25111;SDS011;13092;51.996;4.458;2022-12-16T03:51:17;20.27;;;18.73;;
25111;SDS011;13092;51.996;4.458;2022-12-16T03:53:46;21.73;;;19.87;;
25111;SDS011;13092;51.996;4.458;2022-12-16T03:56:14;22.17;;;20.13;;
25111;SDS011;13092;51.996;4.458;2022-12-16T03:58:45;21.23;;;19.67;;
25111;SDS011;13092;51.996;4.458;2022-12-16T04:01:13;20.80;;;19.20;;
25111;SDS011;13092;51.996;4.458;2022-12-16T04:03:42;21.00;;;19.40;;
25111;SDS011;13092;51.996;4.458;2022-12-16T04:06:11;21.17;;;19.77;;
25111;SDS011;13092;51.996;4.458;2022-12-16T04:08:44;23.07;;;21.20;;
25111;SDS011;13092;51.996;4.458;2022-12-16T04:11:12;20.90;;;19.10;;
25111;SDS011;13092;51.996;4.458;2022-12-16T04:13:59;21.70;;;19.83;;
25111;SDS011;13092;51.996;4.458;2022-12-16T04:16:44;20.07;;;18.57;;
25111;SDS011;13092;51.996;4.458;2022-12-16T04:19:35;21.43;;;20.03;;
25111;SDS011;13092;51.996;4.458;2022-12-16T04:22:24;21.80;;;20.10;;
25111;SDS011;13092;51.996;4.458;2022-12-16T04:25:14;21.37;;;19.77;;
25111;SDS011;13092;51.996;4.458;2022-12-16T04:27:44;23.50;;;21.67;;
25111;SDS011;13092;51.996;4.458;2022-12-16T04:30:19;23.10;;;21.40;;
25111;SDS011;13092;51.996;4.458;2022-12-16T04:32:50;23.60;;;22.03;;
25111;SDS011;13092;51.996;4.458;2022-12-16T04:35:37;22.27;;;20.80;;
25111;SDS011;13092;51.996;4.458;2022-12-16T04:38:24;21.77;;;20.37;;
25111;SDS011;13092;51.996;4.458;2022-12-16T04:41:10;24.43;;;22.73;;
25111;SDS011;13092;51.996;4.458;2022-12-16T04:43:59;23.30;;;21.40;;
25111;SDS011;13092;51.996;4.458;2022-12-16T04:46:45;22.97;;;21.27;;
25111;SDS011;13092;51.996;4.458;2022-12-16T04:49:30;23.27;;;21.60;;
25111;SDS011;13092;51.996;4.458;2022-12-16T04:52:16;21.07;;;19.53;;
25111;SDS011;13092;51.996;4.458;2022-12-16T04:55:04;23.70;;;21.87;;
25111;SDS011;13092;51.996;4.458;2022-12-16T04:57:51;23.20;;;21.50;;
25111;SDS011;13092;51.996;4.458;2022-12-16T05:00:38;25.23;;;23.63;;
25111;SDS011;13092;51.996;4.458;2022-12-16T05:03:25;23.30;;;21.80;;
25111;SDS011;13092;51.996;4.458;2022-12-16T05:06:13;24.80;;;23.17;;
25111;SDS011;13092;51.996;4.458;2022-12-16T05:08:58;26.37;;;24.43;;
25111;SDS011;13092;51.996;4.458;2022-12-16T05:11:46;27.27;;;25.50;;
25111;SDS011;13092;51.996;4.458;2022-12-16T05:14:32;26.33;;;24.73;;
25111;SDS011;13092;51.996;4.458;2022-12-16T05:17:18;26.23;;;24.63;;
25111;SDS011;13092;51.996;4.458;2022-12-16T05:20:04;27.83;;;25.63;;
25111;SDS011;13092;51.996;4.458;2022-12-16T05:22:51;26.77;;;24.87;;
25111;SDS011;13092;51.996;4.458;2022-12-16T05:25:39;26.50;;;24.77;;
25111;SDS011;13092;51.996;4.458;2022-12-16T05:28:27;27.87;;;25.83;;
25111;SDS011;13092;51.996;4.458;2022-12-16T05:31:13;27.93;;;26.20;;
25111;SDS011;13092;51.996;4.458;2022-12-16T05:34:01;29.53;;;27.47;;
25111;SDS011;13092;51.996;4.458;2022-12-16T05:36:47;28.70;;;26.67;;
25111;SDS011;13092;51.996;4.458;2022-12-16T05:39:32;29.77;;;27.67;;
25111;SDS011;13092;51.996;4.458;2022-12-16T05:42:17;28.87;;;26.70;;
25111;SDS011;13092;51.996;4.458;2022-12-16T05:45:05;27.03;;;25.23;;
25111;SDS011;13092;51.996;4.458;2022-12-16T05:47:50;26.77;;;25.17;;
25111;SDS011;13092;51.996;4.458;2022-12-16T05:50:36;28.60;;;26.70;;
25111;SDS011;13092;51.996;4.458;2022-12-16T05:53:21;28.23;;;26.43;;
25111;SDS011;13092;51.996;4.458;2022-12-16T05:56:07;27.43;;;25.53;;
25111;SDS011;13092;51.996;4.458;2022-12-16T05:58:52;27.90;;;26.10;;
25111;SDS011;13092;51.996;4.458;2022-12-16T06:01:39;26.10;;;24.30;;
25111;SDS011;13092;51.996;4.458;2022-12-16T06:04:25;27.20;;;25.30;;
25111;SDS011;13092;51.996;4.458;2022-12-16T06:07:10;27.50;;;25.70;;
25111;SDS011;13092;51.996;4.458;2022-12-16T06:09:57;26.40;;;24.67;;
25111;SDS011;13092;51.996;4.458;2022-12-16T06:12:44;27.33;;;25.50;;
25111;SDS011;13092;51.996;4.458;2022-12-16T06:15:45;27.43;;;25.73;;
25111;SDS011;13092;51.996;4.458;2022-12-16T06:18:35;27.73;;;25.90;;
25111;SDS011;13092;51.996;4.458;2022-12-16T06:21:23;27.90;;;25.83;;
25111;SDS011;13092;51.996;4.458;2022-12-16T06:24:10;29.13;;;27.13;;
25111;SDS011;13092;51.996;4.458;2022-12-16T06:26:54;28.43;;;26.40;;
25111;SDS011;13092;51.996;4.458;2022-12-16T06:29:40;27.23;;;25.33;;
25111;SDS011;13092;51.996;4.458;2022-12-16T06:32:26;27.47;;;25.67;;
25111;SDS011;13092;51.996;4.458;2022-12-16T06:35:16;27.23;;;25.47;;
25111;SDS011;13092;51.996;4.458;2022-12-16T06:38:03;27.77;;;25.70;;
25111;SDS011;13092;51.996;4.458;2022-12-16T06:40:49;26.13;;;24.43;;
25111;SDS011;13092;51.996;4.458;2022-12-16T06:43:36;26.90;;;25.10;;
25111;SDS011;13092;51.996;4.458;2022-12-16T06:46:22;29.13;;;27.07;;
25111;SDS011;13092;51.996;4.458;2022-12-16T06:49:04;28.37;;;26.37;;
25111;SDS011;13092;51.996;4.458;2022-12-16T06:51:52;28.37;;;26.40;;
25111;SDS011;13092;51.996;4.458;2022-12-16T06:54:37;28.00;;;26.03;;
25111;SDS011;13092;51.996;4.458;2022-12-16T06:57:22;29.17;;;26.83;;
25111;SDS011;13092;51.996;4.458;2022-12-16T07:00:08;29.40;;;27.20;;
25111;SDS011;13092;51.996;4.458;2022-12-16T07:02:54;29.30;;;27.30;;
25111;SDS011;13092;51.996;4.458;2022-12-16T07:05:39;29.10;;;26.97;;
25111;SDS011;13092;51.996;4.458;2022-12-16T07:08:26;29.47;;;27.33;;
25111;SDS011;13092;51.996;4.458;2022-12-16T07:11:11;30.20;;;28.03;;
25111;SDS011;13092;51.996;4.458;2022-12-16T07:13:57;29.90;;;27.63;;
25111;SDS011;13092;51.996;4.458;2022-12-16T07:16:42;30.97;;;28.53;;
25111;SDS011;13092;51.996;4.458;2022-12-16T07:19:42;31.03;;;28.53;;
25111;SDS011;13092;51.996;4.458;2022-12-16T07:22:28;29.27;;;27.17;;
25111;SDS011;13092;51.996;4.458;2022-12-16T07:25:38;30.27;;;27.73;;
25111;SDS011;13092;51.996;4.458;2022-12-16T07:28:23;30.53;;;28.33;;
25111;SDS011;13092;51.996;4.458;2022-12-16T07:31:09;31.07;;;28.37;;
25111;SDS011;13092;51.996;4.458;2022-12-16T07:33:55;30.40;;;27.80;;
25111;SDS011;13092;51.996;4.458;2022-12-16T07:36:41;32.77;;;28.57;;
25111;SDS011;13092;51.996;4.458;2022-12-16T07:39:26;33.97;;;29.20;;
25111;SDS011;13092;51.996;4.458;2022-12-16T07:42:21;30.80;;;28.43;;
25111;SDS011;13092;51.996;4.458;2022-12-16T07:45:07;30.40;;;27.60;;
25111;SDS011;13092;51.996;4.458;2022-12-16T07:47:54;28.93;;;26.77;;
25111;SDS011;13092;51.996;4.458;2022-12-16T07:50:39;29.10;;;27.17;;
25111;SDS011;13092;51.996;4.458;2022-12-16T07:53:25;28.33;;;26.23;;
25111;SDS011;13092;51.996;4.458;2022-12-16T07:56:08;29.03;;;27.03;;
25111;SDS011;13092;51.996;4.458;2022-12-16T07:58:55;27.97;;;25.83;;
25111;SDS011;13092;51.996;4.458;2022-12-16T08:01:41;29.13;;;26.80;;
25111;SDS011;13092;51.996;4.458;2022-12-16T08:04:28;29.50;;;26.73;;
25111;SDS011;13092;51.996;4.458;2022-12-16T08:07:14;30.47;;;28.17;;
25111;SDS011;13092;51.996;4.458;2022-12-16T08:09:59;30.17;;;27.63;;
25111;SDS011;13092;51.996;4.458;2022-12-16T08:12:45;28.30;;;26.30;;
25111;SDS011;13092;51.996;4.458;2022-12-16T08:15:32;29.67;;;27.47;;
25111;SDS011;13092;51.996;4.458;2022-12-16T08:18:18;28.97;;;26.77;;
25111;SDS011;13092;51.996;4.458;2022-12-16T08:21:03;28.87;;;26.73;;
25111;SDS011;13092;51.996;4.458;2022-12-16T08:23:50;28.83;;;25.87;;
25111;SDS011;13092;51.996;4.458;2022-12-16T08:26:36;30.20;;;27.67;;
25111;SDS011;13092;51.996;4.458;2022-12-16T08:29:22;28.17;;;26.27;;
25111;SDS011;13092;51.996;4.458;2022-12-16T08:32:11;29.47;;;26.57;;
25111;SDS011;13092;51.996;4.458;2022-12-16T08:34:58;28.30;;;26.33;;
25111;SDS011;13092;51.996;4.458;2022-12-16T08:37:58;27.90;;;26.07;;
25111;SDS011;13092;51.996;4.458;2022-12-16T08:40:44;29.17;;;26.83;;
25111;SDS011;13092;51.996;4.458;2022-12-16T08:43:30;28.90;;;26.87;;
25111;SDS011;13092;51.996;4.458;2022-12-16T08:46:16;28.70;;;26.73;;
25111;SDS011;13092;51.996;4.458;2022-12-16T08:49:03;29.10;;;26.87;;
25111;SDS011;13092;51.996;4.458;2022-12-16T08:51:49;27.87;;;26.00;;
25111;SDS011;13092;51.996;4.458;2022-12-16T08:54:34;27.40;;;25.57;;
25111;SDS011;13092;51.996;4.458;2022-12-16T08:57:20;28.47;;;26.43;;
25111;SDS011;13092;51.996;4.458;2022-12-16T09:00:07;27.47;;;25.57;;
25111;SDS011;13092;51.996;4.458;2022-12-16T09:02:54;28.40;;;26.40;;
25111;SDS011;13092;51.996;4.458;2022-12-16T09:05:44;27.67;;;25.87;;
25111;SDS011;13092;51.996;4.458;2022-12-16T09:08:30;28.33;;;26.23;;
25111;SDS011;13092;51.996;4.458;2022-12-16T09:11:28;29.40;;;26.97;;
25111;SDS011;13092;51.996;4.458;2022-12-16T09:14:13;27.60;;;25.60;;
25111;SDS011;13092;51.996;4.458;2022-12-16T09:16:58;28.30;;;26.30;;
25111;SDS011;13092;51.996;4.458;2022-12-16T09:19:43;27.43;;;25.53;;
25111;SDS011;13092;51.996;4.458;2022-12-16T09:22:31;27.57;;;25.57;;
25111;SDS011;13092;51.996;4.458;2022-12-16T09:25:16;26.57;;;24.80;;
25111;SDS011;13092;51.996;4.458;2022-12-16T09:28:02;27.00;;;25.10;;
25111;SDS011;13092;51.996;4.458;2022-12-16T09:30:47;27.33;;;25.40;;
25111;SDS011;13092;51.996;4.458;2022-12-16T09:33:33;27.47;;;25.40;;
25111;SDS011;13092;51.996;4.458;2022-12-16T09:36:19;26.93;;;24.80;;
25111;SDS011;13092;51.996;4.458;2022-12-16T09:39:06;25.90;;;23.97;;
25111;SDS011;13092;51.996;4.458;2022-12-16T09:41:55;25.20;;;23.60;;
25111;SDS011;13092;51.996;4.458;2022-12-16T09:44:47;24.80;;;22.97;;
25111;SDS011;13092;51.996;4.458;2022-12-16T09:47:43;24.37;;;22.60;;
25111;SDS011;13092;51.996;4.458;2022-12-16T09:50:39;23.70;;;22.00;;
25111;SDS011;13092;51.996;4.458;2022-12-16T09:53:27;24.67;;;22.87;;
25111;SDS011;13092;51.996;4.458;2022-12-16T09:56:20;22.10;;;20.60;;
25111;SDS011;13092;51.996;4.458;2022-12-16T09:59:12;23.07;;;21.57;;
25111;SDS011;13092;51.996;4.458;2022-12-16T10:02:00;24.63;;;22.57;;
25111;SDS011;13092;51.996;4.458;2022-12-16T10:04:42;23.40;;;21.63;;
25111;SDS011;13092;51.996;4.458;2022-12-16T10:07:30;25.77;;;23.27;;
25111;SDS011;13092;51.996;4.458;2022-12-16T10:10:21;25.30;;;23.53;;
25111;SDS011;13092;51.996;4.458;2022-12-16T10:13:19;27.07;;;24.87;;
25111;SDS011;13092;51.996;4.458;2022-12-16T10:16:13;28.27;;;26.37;;
25111;SDS011;13092;51.996;4.458;2022-12-16T10:19:09;29.13;;;26.93;;
25111;SDS011;13092;51.996;4.458;2022-12-16T10:22:02;26.70;;;24.70;;
25111;SDS011;13092;51.996;4.458;2022-12-16T10:24:57;26.73;;;25.03;;
25111;SDS011;13092;51.996;4.458;2022-12-16T10:27:50;27.43;;;25.33;;
25111;SDS011;13092;51.996;4.458;2022-12-16T10:30:46;25.20;;;23.30;;
25111;SDS011;13092;51.996;4.458;2022-12-16T10:33:33;25.27;;;23.27;;
25111;SDS011;13092;51.996;4.458;2022-12-16T10:36:22;27.20;;;24.87;;
25111;SDS011;13092;51.996;4.458;2022-12-16T10:39:16;20.60;;;19.07;;
25111;SDS011;13092;51.996;4.458;2022-12-16T10:42:14;15.70;;;14.10;;
25111;SDS011;13092;51.996;4.458;2022-12-16T10:45:10;10.43;;;9.43;;
25111;SDS011;13092;51.996;4.458;2022-12-16T10:48:08;9.30;;;8.50;;
25111;SDS011;13092;51.996;4.458;2022-12-16T10:50:57;9.40;;;8.53;;
25111;SDS011;13092;51.996;4.458;2022-12-16T10:53:44;7.83;;;7.03;;
25111;SDS011;13092;51.996;4.458;2022-12-16T10:56:38;8.63;;;7.73;;
25111;SDS011;13092;51.996;4.458;2022-12-16T10:59:37;6.60;;;6.00;;
25111;SDS011;13092;51.996;4.458;2022-12-16T11:02:25;10.03;;;7.03;;
25111;SDS011;13092;51.996;4.458;2022-12-16T11:05:28;10.40;;;5.67;;
25111;SDS011;13092;51.996;4.458;2022-12-16T11:08:25;7.97;;;5.27;;
25111;SDS011;13092;51.996;4.458;2022-12-16T11:11:17;8.80;;;5.30;;
25111;SDS011;13092;51.996;4.458;2022-12-16T11:14:14;10.40;;;5.43;;
25111;SDS011;13092;51.996;4.458;2022-12-16T11:17:12;5.63;;;5.07;;
25111;SDS011;13092;51.996;4.458;2022-12-16T11:20:06;9.10;;;5.80;;
25111;SDS011;13092;51.996;4.458;2022-12-16T11:26:10;5.40;;;4.77;;
25111;SDS011;13092;51.996;4.458;2022-12-16T11:29:11;7.57;;;5.60;;
25111;SDS011;13092;51.996;4.458;2022-12-16T11:32:00;6.93;;;5.17;;
25111;SDS011;13092;51.996;4.458;2022-12-16T11:34:50;8.47;;;5.13;;
25111;SDS011;13092;51.996;4.458;2022-12-16T11:37:38;12.10;;;4.90;;
25111;SDS011;13092;51.996;4.458;2022-12-16T11:40:26;6.03;;;5.23;;
25111;SDS011;13092;51.996;4.458;2022-12-16T11:43:14;6.83;;;5.40;;
25111;SDS011;13092;51.996;4.458;2022-12-16T11:46:02;6.83;;;3.70;;
25111;SDS011;13092;51.996;4.458;2022-12-16T11:48:53;5.33;;;4.00;;
25111;SDS011;13092;51.996;4.458;2022-12-16T11:51:52;5.57;;;4.40;;
25111;SDS011;13092;51.996;4.458;2022-12-16T11:55:00;6.23;;;4.30;;
25111;SDS011;13092;51.996;4.458;2022-12-16T11:58:17;12.77;;;4.43;;
25111;SDS011;13092;51.996;4.458;2022-12-16T12:01:19;5.10;;;3.93;;
25111;SDS011;13092;51.996;4.458;2022-12-16T12:04:11;4.77;;;3.17;;
25111;SDS011;13092;51.996;4.458;2022-12-16T12:07:00;4.77;;;2.70;;
25111;SDS011;13092;51.996;4.458;2022-12-16T12:09:57;4.13;;;2.60;;
25111;SDS011;13092;51.996;4.458;2022-12-16T12:12:55;4.07;;;2.13;;
25111;SDS011;13092;51.996;4.458;2022-12-16T12:15:48;2.13;;;1.90;;
25111;SDS011;13092;51.996;4.458;2022-12-16T12:18:43;2.77;;;1.70;;
25111;SDS011;13092;51.996;4.458;2022-12-16T12:21:36;10.57;;;2.30;;
25111;SDS011;13092;51.996;4.458;2022-12-16T12:24:28;2.07;;;1.70;;
25111;SDS011;13092;51.996;4.458;2022-12-16T12:27:24;3.80;;;1.97;;
25111;SDS011;13092;51.996;4.458;2022-12-16T12:30:17;3.70;;;2.00;;
25111;SDS011;13092;51.996;4.458;2022-12-16T12:33:11;4.17;;;2.17;;
25111;SDS011;13092;51.996;4.458;2022-12-16T12:36:07;6.77;;;2.47;;
25111;SDS011;13092;51.996;4.458;2022-12-16T12:39:07;3.83;;;2.10;;
25111;SDS011;13092;51.996;4.458;2022-12-16T12:42:06;4.13;;;1.93;;
25111;SDS011;13092;51.996;4.458;2022-12-16T12:45:05;3.97;;;2.07;;
25111;SDS011;13092;51.996;4.458;2022-12-16T12:48:13;4.80;;;2.00;;
25111;SDS011;13092;51.996;4.458;2022-12-16T12:51:06;3.40;;;2.03;;
25111;SDS011;13092;51.996;4.458;2022-12-16T12:54:00;3.93;;;2.03;;
25111;SDS011;13092;51.996;4.458;2022-12-16T12:56:58;2.77;;;1.90;;
25111;SDS011;13092;51.996;4.458;2022-12-16T12:59:49;3.93;;;1.80;;
25111;SDS011;13092;51.996;4.458;2022-12-16T13:02:42;2.40;;;1.70;;
25111;SDS011;13092;51.996;4.458;2022-12-16T13:05:33;2.90;;;1.90;;
25111;SDS011;13092;51.996;4.458;2022-12-16T13:11:53;3.60;;;1.97;;
25111;SDS011;13092;51.996;4.458;2022-12-16T13:15:05;5.03;;;2.00;;
25111;SDS011;13092;51.996;4.458;2022-12-16T13:20:58;3.10;;;1.30;;
25111;SDS011;13092;51.996;4.458;2022-12-16T13:23:44;4.47;;;1.80;;
25111;SDS011;13092;51.996;4.458;2022-12-16T13:26:31;3.97;;;1.97;;
25111;SDS011;13092;51.996;4.458;2022-12-16T13:29:19;3.87;;;2.00;;
25111;SDS011;13092;51.996;4.458;2022-12-16T13:32:15;3.53;;;1.60;;
25111;SDS011;13092;51.996;4.458;2022-12-16T13:35:03;2.67;;;1.60;;
25111;SDS011;13092;51.996;4.458;2022-12-16T13:38:00;2.67;;;1.70;;
25111;SDS011;13092;51.996;4.458;2022-12-16T13:40:49;5.93;;;1.80;;
25111;SDS011;13092;51.996;4.458;2022-12-16T13:43:43;2.60;;;1.97;;
25111;SDS011;13092;51.996;4.458;2022-12-16T13:46:40;5.53;;;2.07;;
25111;SDS011;13092;51.996;4.458;2022-12-16T13:49:41;4.53;;;1.87;;
25111;SDS011;13092;51.996;4.458;2022-12-16T13:52:33;4.47;;;2.00;;
25111;SDS011;13092;51.996;4.458;2022-12-16T13:55:28;6.93;;;2.60;;
25111;SDS011;13092;51.996;4.458;2022-12-16T13:58:18;6.07;;;2.50;;
25111;SDS011;13092;51.996;4.458;2022-12-16T14:01:10;4.97;;;2.53;;
25111;SDS011;13092;51.996;4.458;2022-12-16T14:03:59;5.77;;;2.30;;
25111;SDS011;13092;51.996;4.458;2022-12-16T14:06:53;5.73;;;2.37;;
25111;SDS011;13092;51.996;4.458;2022-12-16T14:09:49;3.47;;;2.33;;
25111;SDS011;13092;51.996;4.458;2022-12-16T14:12:42;4.03;;;1.90;;
25111;SDS011;13092;51.996;4.458;2022-12-16T14:15:38;5.33;;;2.20;;
25111;SDS011;13092;51.996;4.458;2022-12-16T14:18:38;3.07;;;2.10;;
25111;SDS011;13092;51.996;4.458;2022-12-16T14:21:32;3.20;;;2.00;;
25111;SDS011;13092;51.996;4.458;2022-12-16T14:24:23;5.03;;;2.57;;
25111;SDS011;13092;51.996;4.458;2022-12-16T14:27:12;3.40;;;2.20;;
25111;SDS011;13092;51.996;4.458;2022-12-16T14:30:10;3.43;;;2.00;;
25111;SDS011;13092;51.996;4.458;2022-12-16T14:33:15;5.20;;;2.30;;
25111;SDS011;13092;51.996;4.458;2022-12-16T14:36:18;4.07;;;2.43;;
25111;SDS011;13092;51.996;4.458;2022-12-16T14:39:09;3.50;;;2.30;;
25111;SDS011;13092;51.996;4.458;2022-12-16T14:41:55;3.33;;;2.03;;
25111;SDS011;13092;51.996;4.458;2022-12-16T14:44:43;6.83;;;2.70;;
25111;SDS011;13092;51.996;4.458;2022-12-16T14:47:31;3.90;;;2.17;;
25111;SDS011;13092;51.996;4.458;2022-12-16T14:50:17;7.97;;;2.80;;
25111;SDS011;13092;51.996;4.458;2022-12-16T14:53:05;4.53;;;2.17;;
25111;SDS011;13092;51.996;4.458;2022-12-16T14:59:22;5.63;;;2.50;;
25111;SDS011;13092;51.996;4.458;2022-12-16T15:02:11;6.93;;;2.50;;
25111;SDS011;13092;51.996;4.458;2022-12-16T15:05:10;6.90;;;2.90;;
25111;SDS011;13092;51.996;4.458;2022-12-16T15:07:56;4.90;;;2.57;;
25111;SDS011;13092;51.996;4.458;2022-12-16T15:10:42;6.97;;;2.47;;
25111;SDS011;13092;51.996;4.458;2022-12-16T15:13:27;4.47;;;2.50;;
25111;SDS011;13092;51.996;4.458;2022-12-16T15:16:14;4.87;;;2.30;;
25111;SDS011;13092;51.996;4.458;2022-12-16T15:19:03;3.97;;;2.27;;
25111;SDS011;13092;51.996;4.458;2022-12-16T15:21:56;3.20;;;2.20;;
25111;SDS011;13092;51.996;4.458;2022-12-16T15:24:46;12.00;;;2.83;;
25111;SDS011;13092;51.996;4.458;2022-12-16T15:27:33;5.17;;;2.60;;
25111;SDS011;13092;51.996;4.458;2022-12-16T15:30:34;5.30;;;2.60;;
25111;SDS011;13092;51.996;4.458;2022-12-16T15:33:22;5.30;;;2.77;;
25111;SDS011;13092;51.996;4.458;2022-12-16T15:36:21;3.30;;;2.13;;
25111;SDS011;13092;51.996;4.458;2022-12-16T15:42:25;7.20;;;2.60;;
25111;SDS011;13092;51.996;4.458;2022-12-16T15:45:17;6.17;;;2.60;;
25111;SDS011;13092;51.996;4.458;2022-12-16T15:48:11;6.77;;;2.70;;
25111;SDS011;13092;51.996;4.458;2022-12-16T15:50:58;6.30;;;2.80;;
25111;SDS011;13092;51.996;4.458;2022-12-16T15:53:45;6.80;;;2.80;;
25111;SDS011;13092;51.996;4.458;2022-12-16T15:56:46;5.20;;;2.50;;
25111;SDS011;13092;51.996;4.458;2022-12-16T15:59:33;8.03;;;3.67;;
25111;SDS011;13092;51.996;4.458;2022-12-16T16:02:26;8.97;;;3.70;;
25111;SDS011;13092;51.996;4.458;2022-12-16T16:05:17;7.47;;;3.53;;
25111;SDS011;13092;51.996;4.458;2022-12-16T16:08:04;8.93;;;3.63;;
25111;SDS011;13092;51.996;4.458;2022-12-16T16:10:51;5.40;;;3.00;;
25111;SDS011;13092;51.996;4.458;2022-12-16T16:13:38;7.87;;;4.07;;
25111;SDS011;13092;51.996;4.458;2022-12-16T16:16:34;11.03;;;4.97;;
25111;SDS011;13092;51.996;4.458;2022-12-16T16:19:23;13.33;;;4.40;;
25111;SDS011;13092;51.996;4.458;2022-12-16T16:22:17;9.20;;;4.93;;
25111;SDS011;13092;51.996;4.458;2022-12-16T16:25:04;9.33;;;4.57;;
25111;SDS011;13092;51.996;4.458;2022-12-16T16:31:06;9.87;;;4.70;;
25111;SDS011;13092;51.996;4.458;2022-12-16T16:33:53;9.80;;;4.57;;
25111;SDS011;13092;51.996;4.458;2022-12-16T16:36:39;12.53;;;6.07;;
25111;SDS011;13092;51.996;4.458;2022-12-16T16:39:25;10.53;;;5.57;;
25111;SDS011;13092;51.996;4.458;2022-12-16T16:42:10;13.70;;;6.67;;